Pelagos — SVPQ — position and weather

sailwx.info

Track history (hours):
 
Tides and Currents Weather Stations Pressure Air Temp Water Temp Dewpoint Dewpoint Depression Visibility Wind Speed Wind Dir Waves Ship Positions

Pelagos

Last reported at 2018-Jul-09 04:32 UTC. Time now 2018-Jul-22 16:25 UTC.
Position N 33°54' E 035°07'.
Warning: this ship's position is 13 days out of date.

Length 213 m; draft 12.5 m.

Type: Tanker. MMSI: 239635000.

Date/timePositionNaut miles runAvg speedWind from/ knotsBaromVisibWave heightAir tempDewpointWater temp
2018-Jul-09 04:32N 33°54' E 035°07'710.1
2018-Jul-09 03:48N 33°55' E 034°58'411.6
2018-Jul-09 03:28N 33°55' E 034°54'613.1
2018-Jul-09 02:59N 33°55' E 034°46'1213.1
2018-Jul-09 02:06N 33°56' E 034°32'212.9
2018-Jul-09 01:56N 33°56' E 034°30'613.0
2018-Jul-09 01:30N 33°57' E 034°23'613.0
2018-Jul-09 01:00N 33°57' E 034°15'713.3
2018-Jul-09 00:30N 33°58' E 034°07'2112.6
2018-Jul-08 22:49N 33°59' E 033°42'512.7
2018-Jul-08 22:27N 33°59' E 033°36'612.7
2018-Jul-08 21:58N 33°60' E 033°29'612.9
2018-Jul-08 21:29N 34°00' E 033°21'613.1
2018-Jul-08 21:00N 34°01' E 033°14'713.5
2018-Jul-08 20:30N 34°01' E 033°05'1013.3
2018-Jul-08 19:44N 34°02' E 032°53'313.4
2018-Jul-08 19:30N 34°02' E 032°49'1013.5
2018-Jul-08 18:45N 34°03' E 032°37'413.3
2018-Jul-08 18:29N 34°03' E 032°33'813.5
2018-Jul-08 17:56N 34°03' E 032°24'613.5
2018-Jul-08 17:30N 34°04' E 032°17'713.3
2018-Jul-08 17:00N 34°04' E 032°09'4613.3
2018-Jul-08 13:32N 34°08' E 031°14'114.0
2018-Jul-08 13:30N 34°08' E 031°13'913.7
2018-Jul-08 12:49N 34°08' E 031°02'413.7
2018-Jul-08 12:30N 34°09' E 030°57'913.7
2018-Jul-08 11:50N 34°09' E 030°45'713.7
2018-Jul-08 11:20N 34°10' E 030°37'513.5
2018-Jul-08 11:00N 34°10' E 030°32'2313.3
2018-Jul-08 09:14N 34°12' E 030°03'412.8
2018-Jul-08 08:54N 34°12' E 029°58'512.8
2018-Jul-08 08:30N 34°13' E 029°52'612.8
2018-Jul-08 08:00N 34°13' E 029°44'5112.7
2018-Jul-08 03:58N 34°16' E 028°42'912.8
2018-Jul-08 03:17N 34°17' E 028°32'1412.8
2018-Jul-08 02:11N 34°18' E 028°15'4613.0
2018-Jul-07 22:37N 34°21' E 027°19'2913.1
2018-Jul-07 20:22N 34°23' E 026°43'512.9
2018-Jul-07 19:57N 34°24' E 026°37'613.0
2018-Jul-07 19:30N 34°24' E 026°30'1213.1
2018-Jul-07 18:36N 34°25' E 026°15'513.2
2018-Jul-07 18:13N 34°25' E 026°09'313.3
2018-Jul-07 18:00N 34°26' E 026°06'713.2
2018-Jul-07 17:30N 34°26' E 025°58'1313.2
2018-Jul-07 16:32N 34°27' E 025°42'013.2
2018-Jul-07 16:30N 34°27' E 025°42'713.0
2018-Jul-07 15:58N 34°27' E 025°33'47711.8
2018-Jul-05 23:40N 35°36' E 015°56'1812.8
2018-Jul-05 22:17N 35°41' E 015°35'412.7
2018-Jul-05 21:58N 35°41' E 015°30'612.6
2018-Jul-05 21:30N 35°43' E 015°24'613.0
2018-Jul-05 21:00N 35°44' E 015°16'713.4
2018-Jul-05 20:30N 35°46' E 015°08'713.5
2018-Jul-05 19:59N 35°48' E 014°60'613.1
2018-Jul-05 19:30N 35°50' E 014°52'4 8.6
2018-Jul-05 19:01N 35°53' E 014°48'0 0.4
2018-Jul-05 18:29N 35°53' E 014°48'0 0.0
2018-Jul-05 17:59N 35°53' E 014°48'0 0.0
2018-Jul-05 17:29N 35°53' E 014°48'0 0.0
2018-Jul-05 16:59N 35°53' E 014°48'0 0.1
2018-Jul-05 16:29N 35°53' E 014°48'0 0.1
2018-Jul-05 15:59N 35°53' E 014°48'0 0.1
2018-Jul-05 15:29N 35°53' E 014°48'0 0.1
2018-Jul-05 14:59N 35°53' E 014°48'0 0.1
2018-Jul-05 14:26N 35°53' E 014°48'0 0.0
2018-Jul-05 13:29N 35°53' E 014°48'0 0.2
2018-Jul-05 12:59N 35°53' E 014°48'0 0.3
2018-Jul-05 12:30N 35°53' E 014°48'2 3.7
2018-Jul-05 12:00N 35°52' E 014°50'4 7.4
2018-Jul-05 11:30N 35°52' E 014°55'3 5.4
2018-Jul-05 11:00N 35°54' E 014°55'4 9.0
2018-Jul-05 10:30N 35°58' E 014°53'0 0.4
2018-Jul-05 09:58N 35°58' E 014°53'0 0.1
2018-Jul-05 09:25N 35°58' E 014°53'0 0.1
2018-Jul-05 08:58N 35°58' E 014°53'0 0.0
2018-Jul-05 08:28N 35°58' E 014°53'0 0.0
2018-Jul-05 07:58N 35°58' E 014°53'0 0.0
2018-Jul-05 07:28N 35°58' E 014°53'0 0.0
2018-Jul-04 14:52N 35°58' E 014°53'0 0.0
2018-Jul-04 10:31N 35°58' E 014°53'0 0.0
2018-Jul-04 10:10N 35°58' E 014°53'0 0.1
2018-Jul-04 09:58N 35°58' E 014°53'0 0.0
2018-Jul-04 09:13N 35°58' E 014°53'0 0.0
2018-Jul-04 08:52N 35°58' E 014°53'0 0.0
2018-Jul-04 08:28N 35°58' E 014°53'0 0.0
2018-Jul-04 07:58N 35°58' E 014°53'0 0.0
2018-Jul-04 06:31N 35°58' E 014°53'0 0.0
2018-Jul-04 06:25N 35°58' E 014°53'0 0.0
2018-Jul-04 05:58N 35°58' E 014°53'0 0.0
2018-Jul-03 11:10N 35°58' E 014°53'0 0.0
2018-Jul-03 04:43N 35°58' E 014°53'0 0.0
2018-Jul-03 04:25N 35°58' E 014°53'0 0.0
2018-Jul-03 03:52N 35°58' E 014°53'0 0.0
2018-Jul-03 03:28N 35°58' E 014°53'0 0.0
2018-Jul-03 02:58N 35°58' E 014°53'0 0.0
2018-Jul-03 02:28N 35°58' E 014°53'0 0.0
2018-Jul-03 01:58N 35°58' E 014°53'0 0.0
2018-Jul-03 01:28N 35°58' E 014°53'0 0.0
2018-Jul-03 00:58N 35°58' E 014°53'0 0.0
2018-Jul-03 00:28N 35°58' E 014°53'0 0.0
2018-Jul-02 23:55N 35°58' E 014°53'0 0.0
2018-Jul-02 23:28N 35°58' E 014°53'0 0.0
2018-Jul-02 22:58N 35°58' E 014°53'0 0.0
2018-Jul-02 22:28N 35°58' E 014°53'0 0.0
2018-Jul-02 21:58N 35°58' E 014°53'0 0.0
2018-Jul-02 21:28N 35°58' E 014°53'0 0.0
2018-Jul-02 20:58N 35°58' E 014°53'0 0.0
2018-Jul-02 20:28N 35°58' E 014°53'0 0.1
2018-Jul-02 19:58N 35°58' E 014°53'0 0.0
2018-Jul-02 19:28N 35°58' E 014°53'0 0.0
2018-Jul-02 18:58N 35°58' E 014°53'0 0.3
2018-Jul-02 18:28N 35°58' E 014°53'0 0.4
2018-Jul-02 17:59N 35°58' E 014°53'2 3.7
2018-Jul-02 17:22N 36°00' E 014°52'513.1
2018-Jul-02 17:00N 35°60' E 014°46'5 9.4
2018-Jul-02 16:30N 35°59' E 014°40'5 9.7
2018-Jul-02 15:58N 36°02' E 014°35'613.5
2018-Jul-02 15:30N 36°06' E 014°29'713.2
2018-Jul-02 15:00N 36°10' E 014°23'613.0
2018-Jul-02 14:30N 36°14' E 014°16'713.1
2018-Jul-02 14:00N 36°16' E 014°08'713.1
2018-Jul-02 13:29N 36°19' E 014°01'713.3
2018-Jul-02 12:59N 36°22' E 013°53'1013.1
2018-Jul-02 12:16N 36°25' E 013°42'312.7
2018-Jul-02 12:00N 36°27' E 013°39'612.6
2018-Jul-02 11:30N 36°29' E 013°32'712.8
2018-Jul-02 10:59N 36°31' E 013°24'612.9
2018-Jul-02 10:30N 36°34' E 013°17'612.9
2018-Jul-02 10:00N 36°37' E 013°09'612.9
2018-Jul-02 09:30N 36°39' E 013°02'712.6
2018-Jul-02 08:59N 36°42' E 012°55'612.6
2018-Jul-02 08:29N 36°44' E 012°47'612.2
2018-Jul-02 08:00N 36°47' E 012°41'  
2018-Jun-30 03:37N 36°29' W 000°29'211.5
2018-Jun-30 03:25N 36°29' W 000°31'511.8
2018-Jun-30 03:00N 36°27' W 000°37'711.8
2018-Jun-30 02:26N 36°24' W 000°45'  
Track history (hours):
 
Tides and Currents Weather Stations Pressure Air Temp Water Temp Dewpoint Dewpoint Depression Visibility Wind Speed Wind Dir Waves Ship Positions

Pelagos

Last reported at 2018-Jul-09 04:32 UTC. Time now 2018-Jul-22 16:25 UTC.
Position N 33°54' E 035°07'.
Warning: this ship's position is 13 days out of date.

Length 213 m; draft 12.5 m.

Type: Tanker. MMSI: 239635000.

Date/timePositionNaut miles runAvg speedWind from/ knotsBaromVisibWave heightAir tempDewpointWater temp
2018-Jul-09 04:32N 33°54' E 035°07'710.1
2018-Jul-09 03:48N 33°55' E 034°58'411.6
2018-Jul-09 03:28N 33°55' E 034°54'613.1
2018-Jul-09 02:59N 33°55' E 034°46'1213.1
2018-Jul-09 02:06N 33°56' E 034°32'212.9
2018-Jul-09 01:56N 33°56' E 034°30'613.0
2018-Jul-09 01:30N 33°57' E 034°23'613.0
2018-Jul-09 01:00N 33°57' E 034°15'713.3
2018-Jul-09 00:30N 33°58' E 034°07'2112.6
2018-Jul-08 22:49N 33°59' E 033°42'512.7
2018-Jul-08 22:27N 33°59' E 033°36'612.7
2018-Jul-08 21:58N 33°60' E 033°29'612.9
2018-Jul-08 21:29N 34°00' E 033°21'613.1
2018-Jul-08 21:00N 34°01' E 033°14'713.5
2018-Jul-08 20:30N 34°01' E 033°05'1013.3
2018-Jul-08 19:44N 34°02' E 032°53'313.4
2018-Jul-08 19:30N 34°02' E 032°49'1013.5
2018-Jul-08 18:45N 34°03' E 032°37'413.3
2018-Jul-08 18:29N 34°03' E 032°33'813.5
2018-Jul-08 17:56N 34°03' E 032°24'613.5
2018-Jul-08 17:30N 34°04' E 032°17'713.3
2018-Jul-08 17:00N 34°04' E 032°09'4613.3
2018-Jul-08 13:32N 34°08' E 031°14'114.0
2018-Jul-08 13:30N 34°08' E 031°13'913.7
2018-Jul-08 12:49N 34°08' E 031°02'413.7
2018-Jul-08 12:30N 34°09' E 030°57'913.7
2018-Jul-08 11:50N 34°09' E 030°45'713.7
2018-Jul-08 11:20N 34°10' E 030°37'513.5
2018-Jul-08 11:00N 34°10' E 030°32'2313.3
2018-Jul-08 09:14N 34°12' E 030°03'412.8
2018-Jul-08 08:54N 34°12' E 029°58'512.8
2018-Jul-08 08:30N 34°13' E 029°52'612.8
2018-Jul-08 08:00N 34°13' E 029°44'5112.7
2018-Jul-08 03:58N 34°16' E 028°42'912.8
2018-Jul-08 03:17N 34°17' E 028°32'1412.8
2018-Jul-08 02:11N 34°18' E 028°15'4613.0
2018-Jul-07 22:37N 34°21' E 027°19'2913.1
2018-Jul-07 20:22N 34°23' E 026°43'512.9
2018-Jul-07 19:57N 34°24' E 026°37'613.0
2018-Jul-07 19:30N 34°24' E 026°30'1213.1
2018-Jul-07 18:36N 34°25' E 026°15'513.2
2018-Jul-07 18:13N 34°25' E 026°09'313.3
2018-Jul-07 18:00N 34°26' E 026°06'713.2
2018-Jul-07 17:30N 34°26' E 025°58'1313.2
2018-Jul-07 16:32N 34°27' E 025°42'013.2
2018-Jul-07 16:30N 34°27' E 025°42'713.0
2018-Jul-07 15:58N 34°27' E 025°33'47711.8
2018-Jul-05 23:40N 35°36' E 015°56'1812.8
2018-Jul-05 22:17N 35°41' E 015°35'412.7
2018-Jul-05 21:58N 35°41' E 015°30'612.6
2018-Jul-05 21:30N 35°43' E 015°24'613.0
2018-Jul-05 21:00N 35°44' E 015°16'713.4
2018-Jul-05 20:30N 35°46' E 015°08'713.5
2018-Jul-05 19:59N 35°48' E 014°60'613.1
2018-Jul-05 19:30N 35°50' E 014°52'4 8.6
2018-Jul-05 19:01N 35°53' E 014°48'0 0.4
2018-Jul-05 18:29N 35°53' E 014°48'0 0.0
2018-Jul-05 17:59N 35°53' E 014°48'0 0.0
2018-Jul-05 17:29N 35°53' E 014°48'0 0.0
2018-Jul-05 16:59N 35°53' E 014°48'0 0.1
2018-Jul-05 16:29N 35°53' E 014°48'0 0.1
2018-Jul-05 15:59N 35°53' E 014°48'0 0.1
2018-Jul-05 15:29N 35°53' E 014°48'0 0.1
2018-Jul-05 14:59N 35°53' E 014°48'0 0.1
2018-Jul-05 14:26N 35°53' E 014°48'0 0.0
2018-Jul-05 13:29N 35°53' E 014°48'0 0.2
2018-Jul-05 12:59N 35°53' E 014°48'0 0.3
2018-Jul-05 12:30N 35°53' E 014°48'2 3.7
2018-Jul-05 12:00N 35°52' E 014°50'4 7.4
2018-Jul-05 11:30N 35°52' E 014°55'3 5.4
2018-Jul-05 11:00N 35°54' E 014°55'4 9.0
2018-Jul-05 10:30N 35°58' E 014°53'0 0.4
2018-Jul-05 09:58N 35°58' E 014°53'0 0.1
2018-Jul-05 09:25N 35°58' E 014°53'0 0.1
2018-Jul-05 08:58N 35°58' E 014°53'0 0.0
2018-Jul-05 08:28N 35°58' E 014°53'0 0.0
2018-Jul-05 07:58N 35°58' E 014°53'0 0.0
2018-Jul-05 07:28N 35°58' E 014°53'0 0.0
2018-Jul-04 14:52N 35°58' E 014°53'0 0.0
2018-Jul-04 10:31N 35°58' E 014°53'0 0.0
2018-Jul-04 10:10N 35°58' E 014°53'0 0.1
2018-Jul-04 09:58N 35°58' E 014°53'0 0.0
2018-Jul-04 09:13N 35°58' E 014°53'0 0.0
2018-Jul-04 08:52N 35°58' E 014°53'0 0.0
2018-Jul-04 08:28N 35°58' E 014°53'0 0.0
2018-Jul-04 07:58N 35°58' E 014°53'0 0.0
2018-Jul-04 06:31N 35°58' E 014°53'0 0.0
2018-Jul-04 06:25N 35°58' E 014°53'0 0.0
2018-Jul-04 05:58N 35°58' E 014°53'0 0.0
2018-Jul-03 11:10N 35°58' E 014°53'0 0.0
2018-Jul-03 04:43N 35°58' E 014°53'0 0.0
2018-Jul-03 04:25N 35°58' E 014°53'0 0.0
2018-Jul-03 03:52N 35°58' E 014°53'0 0.0
2018-Jul-03 03:28N 35°58' E 014°53'0 0.0
2018-Jul-03 02:58N 35°58' E 014°53'0 0.0
2018-Jul-03 02:28N 35°58' E 014°53'0 0.0
2018-Jul-03 01:58N 35°58' E 014°53'0 0.0
2018-Jul-03 01:28N 35°58' E 014°53'0 0.0
2018-Jul-03 00:58N 35°58' E 014°53'0 0.0
2018-Jul-03 00:28N 35°58' E 014°53'0 0.0
2018-Jul-02 23:55N 35°58' E 014°53'0 0.0
2018-Jul-02 23:28N 35°58' E 014°53'0 0.0
2018-Jul-02 22:58N 35°58' E 014°53'0 0.0
2018-Jul-02 22:28N 35°58' E 014°53'0 0.0
2018-Jul-02 21:58N 35°58' E 014°53'0 0.0
2018-Jul-02 21:28N 35°58' E 014°53'0 0.0
2018-Jul-02 20:58N 35°58' E 014°53'0 0.0
2018-Jul-02 20:28N 35°58' E 014°53'0 0.1
2018-Jul-02 19:58N 35°58' E 014°53'0 0.0
2018-Jul-02 19:28N 35°58' E 014°53'0 0.0
2018-Jul-02 18:58N 35°58' E 014°53'0 0.3
2018-Jul-02 18:28N 35°58' E 014°53'0 0.4
2018-Jul-02 17:59N 35°58' E 014°53'2 3.7
2018-Jul-02 17:22N 36°00' E 014°52'513.1
2018-Jul-02 17:00N 35°60' E 014°46'5 9.4
2018-Jul-02 16:30N 35°59' E 014°40'5 9.7
2018-Jul-02 15:58N 36°02' E 014°35'613.5
2018-Jul-02 15:30N 36°06' E 014°29'713.2
2018-Jul-02 15:00N 36°10' E 014°23'613.0
2018-Jul-02 14:30N 36°14' E 014°16'713.1
2018-Jul-02 14:00N 36°16' E 014°08'713.1
2018-Jul-02 13:29N 36°19' E 014°01'713.3
2018-Jul-02 12:59N 36°22' E 013°53'1013.1
2018-Jul-02 12:16N 36°25' E 013°42'312.7
2018-Jul-02 12:00N 36°27' E 013°39'612.6
2018-Jul-02 11:30N 36°29' E 013°32'712.8
2018-Jul-02 10:59N 36°31' E 013°24'612.9
2018-Jul-02 10:30N 36°34' E 013°17'612.9
2018-Jul-02 10:00N 36°37' E 013°09'612.9
2018-Jul-02 09:30N 36°39' E 013°02'712.6
2018-Jul-02 08:59N 36°42' E 012°55'612.6
2018-Jul-02 08:29N 36°44' E 012°47'612.2
2018-Jul-02 08:00N 36°47' E 012°41'  
2018-Jun-30 03:37N 36°29' W 000°29'211.5
2018-Jun-30 03:25N 36°29' W 000°31'511.8
2018-Jun-30 03:00N 36°27' W 000°37'711.8
2018-Jun-30 02:26N 36°24' W 000°45'  

Dump ship's entire track history